Time;durP1;ratioP1;P1;durP2;ratioP2;P2;SDS_P1;SDS_P2;PMS_P1;PMS_P2;Temp;Humidity;BMP_temperature;BMP_pressure;BME280_temperature;BME280_humidity;BME280_pressure;Samples;Min_cycle;Max_cycle;Signal;HPM_P1;HPM_P2
2021/01/05 00:02:10;;;;;;;15.30;13.67;;;1.10;98.30;;;;;;5077789;28;20185;-75
2021/01/05 00:04:36;;;;;;;14.77;11.80;;;1.10;98.40;;;;;;5077102;28;20213;-74
2021/01/05 00:07:03;;;;;;;13.80;11.47;;;1.10;98.60;;;;;;5076869;28;20239;-74
2021/01/05 00:09:29;;;;;;;15.43;11.73;;;1.10;98.10;;;;;;5074716;28;20199;-74
2021/01/05 00:11:56;;;;;;;13.60;11.50;;;1.10;98.10;;;;;;5083100;28;20193;-74
2021/01/05 00:14:22;;;;;;;15.93;11.60;;;1.10;98.30;;;;;;5077117;28;20672;-75
2021/01/05 00:16:47;;;;;;;13.93;10.90;;;1.20;98.30;;;;;;5076057;28;20187;-74
2021/01/05 00:19:13;;;;;;;13.00;10.83;;;1.10;98.50;;;;;;5076427;28;20188;-74
2021/01/05 00:21:39;;;;;;;13.27;11.63;;;1.10;98.60;;;;;;5085631;28;20187;-74
2021/01/05 00:24:07;;;;;;;13.87;11.67;;;1.10;98.40;;;;;;5075059;28;20553;-74
2021/01/05 00:26:37;;;;;;;16.90;12.40;;;1.10;98.50;;;;;;5077546;28;20285;-74
2021/01/05 00:29:03;;;;;;;13.93;11.23;;;1.10;98.30;;;;;;5083564;28;20178;-73
2021/01/05 00:31:29;;;;;;;15.03;11.93;;;1.10;98.50;;;;;;5078756;28;20183;-75
2021/01/05 00:33:55;;;;;;;14.80;11.63;;;1.10;98.70;;;;;;5081798;28;20189;-75
2021/01/05 00:36:20;;;;;;;14.97;10.77;;;1.10;98.70;;;;;;5087192;28;20628;-74
2021/01/05 00:38:46;;;;;;;12.43;10.37;;;1.10;98.60;;;;;;5082423;28;20217;-74
2021/01/05 00:41:12;;;;;;;13.03;11.07;;;1.10;98.40;;;;;;5077236;28;20208;-74
2021/01/05 00:43:39;;;;;;;14.97;12.50;;;1.20;98.60;;;;;;5079308;28;21152;-74
2021/01/05 00:46:06;;;;;;;15.00;12.27;;;1.20;98.70;;;;;;5081953;28;20207;-74
2021/01/05 00:48:32;;;;;;;16.03;12.40;;;1.10;99.00;;;;;;5079624;28;20191;-74
2021/01/05 00:50:57;;;;;;;17.23;12.93;;;1.10;98.60;;;;;;5076271;28;20264;-76
2021/01/05 00:53:23;;;;;;;18.20;13.80;;;1.10;98.70;;;;;;5080044;28;20183;-76
2021/01/05 00:55:49;;;;;;;17.13;13.77;;;1.20;98.60;;;;;;5078391;28;20189;-74
2021/01/05 00:58:14;;;;;;;19.17;14.17;;;1.20;98.50;;;;;;5082143;28;20185;-74
2021/01/05 01:00:40;;;;;;;20.93;14.83;;;1.20;98.50;;;;;;5080502;28;20996;-75
2021/01/05 01:03:05;;;;;;;17.37;13.63;;;1.20;98.70;;;;;;5080130;28;20267;-75
2021/01/05 01:05:31;;;;;;;16.10;13.30;;;1.20;98.70;;;;;;5078284;28;20279;-75
2021/01/05 01:07:57;;;;;;;18.13;14.27;;;1.20;98.80;;;;;;5078688;28;20297;-74
2021/01/05 01:10:22;;;;;;;17.33;14.40;;;1.10;98.80;;;;;;5082434;28;20188;-74
2021/01/05 01:12:48;;;;;;;17.10;14.17;;;1.20;98.80;;;;;;5077511;28;20190;-75
2021/01/05 01:15:14;;;;;;;18.33;14.30;;;1.10;98.90;;;;;;5073386;28;20198;-74
2021/01/05 01:17:40;;;;;;;17.90;13.97;;;1.20;99.00;;;;;;5078010;28;20184;-75
2021/01/05 01:20:07;;;;;;;18.40;14.00;;;1.10;99.10;;;;;;5078916;28;20216;-74
2021/01/05 01:22:33;;;;;;;18.43;14.07;;;1.20;99.00;;;;;;5080437;28;20178;-73
2021/01/05 01:24:58;;;;;;;18.20;14.00;;;1.20;99.20;;;;;;5076693;28;20235;-74
2021/01/05 01:27:24;;;;;;;18.77;14.90;;;1.20;99.20;;;;;;5079260;28;20365;-74
2021/01/05 01:29:49;;;;;;;19.73;14.73;;;1.20;99.00;;;;;;5072605;28;20210;-73
2021/01/05 01:32:16;;;;;;;16.90;14.30;;;1.20;99.20;;;;;;5073181;28;20533;-74
2021/01/05 01:34:42;;;;;;;20.57;15.33;;;1.20;99.10;;;;;;5086995;28;20193;-74
2021/01/05 01:37:10;;;;;;;19.50;14.80;;;1.30;99.40;;;;;;5077048;28;20193;-75
2021/01/05 01:39:37;;;;;;;21.00;15.93;;;1.30;99.10;;;;;;5082440;28;20180;-74
2021/01/05 01:42:06;;;;;;;20.47;15.10;;;1.30;99.10;;;;;;5072246;28;20200;-74
2021/01/05 01:44:35;;;;;;;20.07;15.83;;;1.20;99.10;;;;;;5081084;28;20294;-74
2021/01/05 01:47:15;;;;;;;21.20;16.20;;;1.20;99.00;;;;;;5078852;28;20203;-74
2021/01/05 01:49:43;;;;;;;20.57;15.57;;;1.20;99.30;;;;;;5078440;28;20174;-75
2021/01/05 01:52:09;;;;;;;20.23;15.73;;;1.20;99.20;;;;;;5077052;28;20211;-74
2021/01/05 01:54:48;;;;;;;19.60;15.20;;;1.20;99.20;;;;;;5082562;28;20248;-75
2021/01/05 01:57:20;;;;;;;18.27;15.10;;;1.20;99.40;;;;;;5080159;28;20698;-74
2021/01/05 01:59:54;;;;;;;18.70;14.30;;;1.20;99.30;;;;;;5081829;28;20594;-75
2021/01/05 02:02:47;;;;;;;18.77;15.20;;;1.20;99.40;;;;;;5081753;28;20177;-74
2021/01/05 02:05:19;;;;;;;20.07;15.97;;;1.20;99.30;;;;;;5081741;28;20221;-74
2021/01/05 02:08:06;;;;;;;19.30;15.43;;;1.20;99.60;;;;;;5084807;28;20329;-74
2021/01/05 02:10:50;;;;;;;19.27;14.90;;;1.20;99.70;;;;;;5077437;28;20253;-74
2021/01/05 02:14:05;;;;;;;20.23;14.77;;;1.20;99.60;;;;;;5082110;28;20191;-74
2021/01/05 02:16:37;;;;;;;20.73;15.87;;;1.30;99.50;;;;;;5083534;28;20217;-73
2021/01/05 02:19:14;;;;;;;19.67;15.47;;;1.20;99.50;;;;;;5075303;28;20203;-75
2021/01/05 02:22:07;;;;;;;20.17;15.97;;;1.30;99.60;;;;;;5084147;28;20178;-75
2021/01/05 02:25:30;;;;;;;18.37;14.57;;;1.30;99.60;;;;;;5075111;28;20263;-75
2021/01/05 02:28:02;;;;;;;20.80;15.07;;;1.30;99.40;;;;;;5045988;28;20218;-74
2021/01/05 02:30:41;;;;;;;18.13;14.63;;;1.30;99.50;;;;;;5073381;28;20572;-74
2021/01/05 02:33:41;;;;;;;19.77;15.00;;;1.30;99.40;;;;;;5085892;28;20192;-74
2021/01/05 02:36:46;;;;;;;19.30;14.70;;;1.30;99.40;;;;;;5079850;28;20244;-74
2021/01/05 02:39:32;;;;;;;18.83;14.73;;;1.30;99.60;;;;;;5077847;28;20722;-74
2021/01/05 02:42:23;;;;;;;18.47;14.73;;;1.30;99.40;;;;;;5080779;28;20186;-75
2021/01/05 02:44:58;;;;;;;20.30;15.67;;;1.30;99.10;;;;;;5077251;28;20424;-74
2021/01/05 02:47:46;;;;;;;18.50;14.63;;;1.30;99.30;;;;;;5081157;28;20200;-74
2021/01/05 02:50:49;;;;;;;19.40;15.00;;;1.30;99.60;;;;;;5085756;28;20183;-74
2021/01/05 02:53:33;;;;;;;19.80;15.27;;;1.30;99.60;;;;;;5071778;28;20182;-74
2021/01/05 02:56:32;;;;;;;20.37;14.87;;;1.30;99.40;;;;;;5080164;28;20198;-74
2021/01/05 02:59:18;;;;;;;20.30;14.73;;;1.30;99.40;;;;;;5081762;28;20270;-74
2021/01/05 03:01:49;;;;;;;20.43;14.37;;;1.30;99.50;;;;;;5079994;28;20273;-74
2021/01/05 03:04:15;;;;;;;20.83;16.00;;;1.30;99.40;;;;;;5081756;28;20228;-76
2021/01/05 03:06:47;;;;;;;18.80;15.60;;;1.30;99.50;;;;;;5080446;28;20200;-76
2021/01/05 03:09:31;;;;;;;21.23;16.50;;;1.30;99.70;;;;;;5076391;28;20259;-74
2021/01/05 03:12:21;;;;;;;20.97;15.23;;;1.30;99.70;;;;;;5075531;28;20176;-74
2021/01/05 03:15:08;;;;;;;19.97;15.77;;;1.40;99.90;;;;;;5078177;28;20217;-74
2021/01/05 03:17:47;;;;;;;21.47;16.30;;;1.40;99.80;;;;;;5078734;28;20176;-74
2021/01/05 03:20:37;;;;;;;20.83;16.63;;;1.40;99.90;;;;;;5082016;28;20250;-74
2021/01/05 03:23:07;;;;;;;21.03;16.63;;;1.40;99.70;;;;;;5078190;28;20701;-74
2021/01/05 03:25:38;;;;;;;20.83;16.53;;;1.40;99.70;;;;;;5078220;28;20210;-74
2021/01/05 03:28:07;;;;;;;23.13;16.37;;;1.40;99.50;;;;;;5081691;28;20205;-74
2021/01/05 03:30:37;;;;;;;21.80;16.43;;;1.30;99.50;;;;;;5081655;28;20208;-74
2021/01/05 03:33:03;;;;;;;23.37;17.17;;;1.40;99.70;;;;;;5083871;28;20194;-74
2021/01/05 03:35:30;;;;;;;19.50;15.43;;;1.40;99.70;;;;;;5079919;28;20204;-74
2021/01/05 03:37:57;;;;;;;19.80;15.83;;;1.40;99.50;;;;;;5076528;28;20214;-74
2021/01/05 03:40:23;;;;;;;20.00;16.07;;;1.40;99.40;;;;;;5080894;28;20170;-74
2021/01/05 03:42:49;;;;;;;21.13;16.07;;;1.30;99.50;;;;;;5081696;28;20188;-76
2021/01/05 03:45:28;;;;;;;20.80;16.23;;;1.40;99.60;;;;;;5084112;28;20209;-74
2021/01/05 03:47:54;;;;;;;21.97;16.23;;;1.40;99.80;;;;;;5073379;28;20233;-74
2021/01/05 03:50:20;;;;;;;22.63;16.77;;;1.40;99.60;;;;;;5082094;28;20211;-74
2021/01/05 03:52:46;;;;;;;22.83;16.33;;;1.30;99.40;;;;;;5083420;28;20174;-74
2021/01/05 03:55:14;;;;;;;26.07;16.90;;;1.40;99.50;;;;;;5082639;28;20284;-74
2021/01/05 03:57:40;;;;;;;24.83;16.43;;;1.30;99.50;;;;;;5075164;28;20601;-74
2021/01/05 04:00:07;;;;;;;24.17;17.70;;;1.30;99.70;;;;;;5077865;28;20182;-74
2021/01/05 04:02:34;;;;;;;23.53;16.07;;;1.40;99.90;;;;;;5079102;28;20245;-74
2021/01/05 04:04:59;;;;;;;22.37;16.13;;;1.40;99.90;;;;;;5077037;28;20204;-74
2021/01/05 04:07:25;;;;;;;23.30;17.47;;;1.40;99.60;;;;;;5082923;28;20205;-75
2021/01/05 04:09:52;;;;;;;23.57;17.73;;;1.40;99.60;;;;;;5075725;28;20825;-74
2021/01/05 04:12:18;;;;;;;22.80;17.63;;;1.40;99.70;;;;;;5079176;28;20182;-74
2021/01/05 04:14:44;;;;;;;24.33;18.37;;;1.40;99.70;;;;;;5075520;28;20222;-74
2021/01/05 04:17:10;;;;;;;23.60;17.97;;;1.40;99.70;;;;;;5083169;28;20839;-76
2021/01/05 04:19:35;;;;;;;22.23;16.73;;;1.40;99.70;;;;;;5074660;28;20200;-74
2021/01/05 04:22:01;;;;;;;26.67;19.70;;;1.40;99.60;;;;;;5085765;28;20184;-74
2021/01/05 04:24:27;;;;;;;25.63;18.90;;;1.40;99.90;;;;;;5073165;28;20328;-74
2021/01/05 04:26:52;;;;;;;26.83;18.47;;;1.50;99.90;;;;;;5080100;28;20231;-75
2021/01/05 04:29:18;;;;;;;24.07;18.47;;;1.50;99.90;;;;;;5084101;28;20637;-75
2021/01/05 04:31:44;;;;;;;27.17;19.17;;;1.50;99.90;;;;;;5081591;28;20259;-74
2021/01/05 04:34:12;;;;;;;25.27;19.20;;;1.50;99.90;;;;;;5077942;28;20267;-74
2021/01/05 04:36:38;;;;;;;30.87;20.60;;;1.50;99.90;;;;;;5081936;28;20597;-74
2021/01/05 04:39:04;;;;;;;29.23;21.07;;;1.50;99.90;;;;;;5082520;28;20192;-74
2021/01/05 04:41:38;;;;;;;35.73;23.87;;;1.50;99.90;;;;;;5077022;28;20194;-73
2021/01/05 04:44:05;;;;;;;37.47;25.93;;;1.50;99.90;;;;;;5084343;28;20288;-74
2021/01/05 04:46:43;;;;;;;37.10;26.30;;;1.50;99.90;;;;;;5072370;28;20668;-74
2021/01/05 04:49:30;;;;;;;40.03;33.00;;;1.50;99.90;;;;;;5079298;28;20502;-74
2021/01/05 04:52:02;;;;;;;34.80;26.27;;;1.50;99.90;;;;;;5081849;28;20180;-75
2021/01/05 04:54:35;;;;;;;33.03;23.50;;;1.50;99.90;;;;;;5079786;28;20844;-75
2021/01/05 04:57:09;;;;;;;33.13;23.10;;;1.50;99.90;;;;;;5077457;28;20264;-75
2021/01/05 04:59:43;;;;;;;30.87;21.27;;;1.50;99.90;;;;;;5080031;28;20174;-75
2021/01/05 05:02:29;;;;;;;30.27;21.23;;;1.50;99.90;;;;;;5079542;28;20579;-75
2021/01/05 05:05:36;;;;;;;32.60;22.30;;;1.50;99.90;;;;;;5089927;28;20206;-75
2021/01/05 05:08:25;;;;;;;30.87;22.77;;;1.50;99.90;;;;;;5097937;28;20239;-75
2021/01/05 05:10:59;;;;;;;35.87;23.93;;;1.50;99.90;;;;;;5092142;28;20204;-77
2021/01/05 05:13:38;;;;;;;31.33;21.77;;;1.50;99.90;;;;;;5095260;28;20168;-76
2021/01/05 05:16:19;;;;;;;37.23;24.10;;;1.50;99.90;;;;;;5097353;28;20212;-76
2021/01/05 05:19:06;;;;;;;30.73;22.40;;;1.50;99.90;;;;;;5086178;28;20254;-76
2021/01/05 05:21:37;;;;;;;35.87;24.07;;;1.50;99.90;;;;;;5100260;28;20200;-77
2021/01/05 05:24:15;;;;;;;33.30;23.63;;;1.50;99.90;;;;;;5088030;28;20173;-75
2021/01/05 05:27:12;;;;;;;32.00;23.70;;;1.50;99.90;;;;;;5094420;28;20285;-75
2021/01/05 05:29:40;;;;;;;35.60;23.90;;;1.50;99.90;;;;;;5097435;28;20196;-75
2021/01/05 05:32:32;;;;;;;36.03;23.93;;;1.50;99.90;;;;;;5087363;28;20235;-75
2021/01/05 05:35:04;;;;;;;31.53;23.10;;;1.50;99.90;;;;;;5095434;28;20207;-77
2021/01/05 05:37:55;;;;;;;32.13;23.27;;;1.50;99.90;;;;;;5087952;28;20211;-77
2021/01/05 05:40:26;;;;;;;34.47;24.13;;;1.50;99.90;;;;;;5092756;28;20188;-75
2021/01/05 05:43:10;;;;;;;38.07;25.60;;;1.50;99.90;;;;;;5083565;28;20205;-76
2021/01/05 05:45:47;;;;;;;36.43;25.17;;;1.40;99.90;;;;;;5085781;28;20204;-75
2021/01/05 05:48:40;;;;;;;40.67;27.57;;;1.50;99.90;;;;;;5089130;28;20201;-76
2021/01/05 05:51:31;;;;;;;38.60;25.90;;;1.50;99.90;;;;;;5093443;28;20186;-77
2021/01/05 05:54:10;;;;;;;38.13;25.80;;;1.50;99.90;;;;;;5087272;28;20208;-75
2021/01/05 05:56:57;;;;;;;41.80;27.37;;;1.50;99.90;;;;;;5081845;28;20216;-75
2021/01/05 05:59:39;;;;;;;40.63;27.17;;;1.50;99.90;;;;;;5083600;28;20183;-75
2021/01/05 06:02:05;;;;;;;40.23;26.87;;;1.50;99.90;;;;;;5086821;28;20213;-76
2021/01/05 06:04:36;;;;;;;38.37;26.83;;;1.50;99.90;;;;;;5084040;28;20207;-75
2021/01/05 06:07:02;;;;;;;37.40;26.30;;;1.50;99.90;;;;;;5085540;28;20201;-75
2021/01/05 06:09:27;;;;;;;38.03;25.97;;;1.50;99.90;;;;;;5086339;28;20181;-75
2021/01/05 06:11:54;;;;;;;38.10;25.50;;;1.50;99.90;;;;;;5081704;28;20182;-75
2021/01/05 06:14:20;;;;;;;39.60;27.80;;;1.60;99.90;;;;;;5082223;28;20226;-75
2021/01/05 06:16:46;;;;;;;38.17;26.07;;;1.60;99.90;;;;;;5084475;28;20538;-74
2021/01/05 06:19:12;;;;;;;34.50;24.93;;;1.60;99.90;;;;;;5081123;28;20198;-74
2021/01/05 06:21:37;;;;;;;35.53;25.70;;;1.60;99.90;;;;;;5086577;28;20188;-74
2021/01/05 06:24:03;;;;;;;36.20;25.60;;;1.50;99.90;;;;;;5078063;28;20531;-74
2021/01/05 06:26:29;;;;;;;37.27;25.53;;;1.50;99.90;;;;;;5083686;28;20198;-75
2021/01/05 06:28:54;;;;;;;35.00;25.03;;;1.50;99.90;;;;;;5090672;28;20189;-74
2021/01/05 06:31:20;;;;;;;36.80;27.07;;;1.50;99.90;;;;;;5082111;28;20655;-74
2021/01/05 06:33:45;;;;;;;38.00;25.30;;;1.50;99.90;;;;;;5075984;28;20191;-74
2021/01/05 06:36:11;;;;;;;35.57;24.83;;;1.50;99.90;;;;;;5080410;28;20263;-75
2021/01/05 06:38:37;;;;;;;37.20;25.27;;;1.50;99.90;;;;;;5081116;28;20236;-74
2021/01/05 06:41:02;;;;;;;32.93;25.67;;;1.50;99.90;;;;;;5078681;28;20214;-74
2021/01/05 06:43:28;;;;;;;36.37;26.00;;;1.60;99.90;;;;;;5079955;28;20205;-74
2021/01/05 06:45:54;;;;;;;37.97;25.43;;;1.60;99.90;;;;;;5083674;28;20274;-74
2021/01/05 06:48:19;;;;;;;36.40;25.53;;;1.60;99.90;;;;;;5081731;28;20191;-74
2021/01/05 06:50:45;;;;;;;39.03;26.60;;;1.60;99.90;;;;;;5087357;28;20181;-74
2021/01/05 06:53:11;;;;;;;35.57;25.97;;;1.60;99.90;;;;;;5088433;28;20644;-74
2021/01/05 06:55:36;;;;;;;37.10;26.37;;;1.60;99.90;;;;;;5075079;28;20209;-74
2021/01/05 06:58:02;;;;;;;35.47;24.53;;;1.60;99.90;;;;;;5084196;28;20685;-74
2021/01/05 07:00:29;;;;;;;37.10;25.07;;;1.70;99.90;;;;;;5084092;28;20190;-74
2021/01/05 07:02:55;;;;;;;37.90;26.00;;;1.70;99.90;;;;;;5081843;28;20194;-74
2021/01/05 07:05:22;;;;;;;35.10;25.33;;;1.80;99.90;;;;;;5082991;28;20212;-74
2021/01/05 07:07:48;;;;;;;34.67;24.93;;;1.80;99.90;;;;;;5084719;28;20292;-74
2021/01/05 07:10:16;;;;;;;35.30;25.80;;;1.80;99.90;;;;;;5079129;28;20208;-74
2021/01/05 07:12:43;;;;;;;35.47;25.73;;;1.80;99.90;;;;;;5079281;28;20193;-74
2021/01/05 07:15:11;;;;;;;36.53;24.83;;;1.80;99.90;;;;;;5073857;28;20216;-73
2021/01/05 07:17:37;;;;;;;32.20;24.87;;;1.80;99.90;;;;;;5085204;28;20178;-73
2021/01/05 07:20:05;;;;;;;36.73;25.03;;;1.80;99.90;;;;;;5077302;28;20213;-73
2021/01/05 07:22:31;;;;;;;36.10;25.80;;;1.80;99.90;;;;;;5083266;28;20194;-73
2021/01/05 07:24:56;;;;;;;34.90;26.13;;;1.80;99.90;;;;;;5091546;28;20208;-74
2021/01/05 07:27:23;;;;;;;37.13;25.67;;;1.80;99.90;;;;;;5096678;28;20247;-74
2021/01/05 07:29:49;;;;;;;37.27;26.97;;;1.80;99.90;;;;;;5096126;28;20440;-74
2021/01/05 07:32:14;;;;;;;35.53;26.47;;;1.80;99.90;;;;;;5095396;28;20189;-74
2021/01/05 07:34:40;;;;;;;35.83;26.83;;;1.90;99.90;;;;;;5079239;28;20713;-74
2021/01/05 07:37:10;;;;;;;35.00;24.93;;;1.90;99.90;;;;;;5075636;28;20192;-74
2021/01/05 07:39:36;;;;;;;34.27;24.97;;;1.90;99.90;;;;;;5083892;28;20192;-75
2021/01/05 07:42:17;;;;;;;36.33;25.73;;;1.90;99.90;;;;;;5075072;28;20199;-73
2021/01/05 07:44:44;;;;;;;36.33;24.67;;;1.90;99.90;;;;;;5084615;28;20287;-75
2021/01/05 07:47:12;;;;;;;33.70;24.40;;;1.90;99.90;;;;;;5081614;28;20269;-74
2021/01/05 07:49:38;;;;;;;33.00;24.97;;;1.90;99.90;;;;;;5080178;28;20213;-74
2021/01/05 07:52:40;;;;;;;34.47;25.13;;;1.90;99.90;;;;;;5084882;28;20259;-74
2021/01/05 07:55:18;;;;;;;34.23;24.80;;;1.90;99.90;;;;;;5087084;28;20203;-74
2021/01/05 07:57:44;;;;;;;35.60;26.47;;;1.90;99.90;;;;;;5082294;28;20188;-74
2021/01/05 08:00:15;;;;;;;39.70;26.83;;;1.90;99.90;;;;;;5085980;28;20198;-73
2021/01/05 08:02:41;;;;;;;33.80;25.57;;;1.90;99.90;;;;;;5082450;28;20197;-72
2021/01/05 08:05:08;;;;;;;36.67;26.23;;;2.00;99.90;;;;;;5084812;28;20214;-73
2021/01/05 08:07:33;;;;;;;35.27;25.10;;;2.00;99.90;;;;;;5090144;28;20251;-73
2021/01/05 08:09:59;;;;;;;34.43;25.33;;;2.00;99.90;;;;;;5092983;28;20188;-73
2021/01/05 08:12:25;;;;;;;34.20;26.07;;;2.00;99.90;;;;;;5077857;28;20186;-74
2021/01/05 08:14:50;;;;;;;33.07;25.77;;;2.00;99.90;;;;;;5082443;28;20208;-73
2021/01/05 08:17:16;;;;;;;36.67;27.00;;;2.00;99.90;;;;;;5080164;28;20185;-74
2021/01/05 08:19:43;;;;;;;38.80;28.17;;;2.00;99.90;;;;;;5073302;28;20663;-73
2021/01/05 08:22:08;;;;;;;36.50;26.67;;;2.00;99.90;;;;;;5081653;28;20185;-73
2021/01/05 08:24:34;;;;;;;37.50;26.40;;;2.00;99.90;;;;;;5079388;28;20258;-73
2021/01/05 08:26:59;;;;;;;34.33;26.83;;;2.00;99.90;;;;;;5085506;28;20207;-73
2021/01/05 08:29:25;;;;;;;36.87;26.50;;;2.10;99.90;;;;;;5088768;28;20189;-72
2021/01/05 08:31:51;;;;;;;33.43;23.67;;;2.10;99.90;;;;;;5076400;28;20276;-73
2021/01/05 08:34:17;;;;;;;31.90;24.17;;;2.10;99.90;;;;;;5083376;28;20178;-74
2021/01/05 08:36:43;;;;;;;33.13;23.37;;;2.10;99.90;;;;;;5074768;28;20298;-73
2021/01/05 08:39:13;;;;;;;35.27;25.00;;;2.00;99.90;;;;;;5085089;28;20376;-73
2021/01/05 08:41:41;;;;;;;33.97;24.83;;;2.00;99.90;;;;;;5083101;28;20172;-73
2021/01/05 08:44:07;;;;;;;39.23;28.27;;;2.00;99.90;;;;;;5081306;28;20754;-73
2021/01/05 08:46:33;;;;;;;36.93;27.87;;;2.00;99.90;;;;;;5076661;28;20613;-73
2021/01/05 08:48:58;;;;;;;36.87;26.13;;;2.10;99.90;;;;;;5082425;28;20174;-74
2021/01/05 08:51:24;;;;;;;36.67;25.27;;;2.10;99.90;;;;;;5080901;28;20188;-74
2021/01/05 08:53:51;;;;;;;33.57;25.73;;;2.20;99.90;;;;;;5075736;28;20644;-74
2021/01/05 08:56:27;;;;;;;34.27;26.13;;;2.20;99.90;;;;;;5079161;28;20268;-73
2021/01/05 08:58:53;;;;;;;36.10;26.23;;;2.20;99.90;;;;;;5074777;28;20178;-72
2021/01/05 09:01:19;;;;;;;36.13;26.23;;;2.20;99.90;;;;;;5075024;28;20305;-74
2021/01/05 09:03:45;;;;;;;33.77;26.77;;;2.20;99.90;;;;;;5085874;28;20171;-73
2021/01/05 09:06:12;;;;;;;34.47;27.10;;;2.20;99.90;;;;;;5088900;28;20212;-75
2021/01/05 09:08:39;;;;;;;36.17;26.60;;;2.20;99.90;;;;;;5086632;28;20661;-73
2021/01/05 09:11:23;;;;;;;31.27;24.37;;;2.10;99.90;;;;;;5083068;28;20715;-72
2021/01/05 09:13:49;;;;;;;34.30;24.57;;;2.10;99.90;;;;;;5082817;28;20201;-73
2021/01/05 09:16:26;;;;;;;35.87;27.53;;;2.10;99.90;;;;;;5089173;28;20855;-72
2021/01/05 09:18:56;;;;;;;41.77;34.43;;;2.20;99.90;;;;;;5083981;28;20275;-73
2021/01/05 09:21:23;;;;;;;37.60;25.93;;;2.20;99.90;;;;;;5084313;28;20653;-73
2021/01/05 09:23:53;;;;;;;35.40;26.33;;;2.20;99.90;;;;;;5085604;28;20279;-73
2021/01/05 09:26:25;;;;;;;37.73;30.40;;;2.30;99.90;;;;;;5083623;28;20195;-73
2021/01/05 09:28:51;;;;;;;40.90;34.43;;;2.30;99.90;;;;;;5083943;28;20180;-73
2021/01/05 09:31:18;;;;;;;41.10;34.17;;;2.30;99.90;;;;;;5082164;28;20182;-73
2021/01/05 09:33:44;;;;;;;33.30;26.67;;;2.30;99.90;;;;;;5086394;28;20436;-72
2021/01/05 09:36:10;;;;;;;34.10;26.60;;;2.30;99.90;;;;;;5085176;28;20681;-73
2021/01/05 09:38:38;;;;;;;33.33;25.23;;;2.30;99.90;;;;;;5088978;28;20290;-72
2021/01/05 09:41:04;;;;;;;29.47;24.63;;;2.40;99.90;;;;;;5082858;28;20185;-72
2021/01/05 09:43:30;;;;;;;29.80;23.00;;;2.40;99.90;;;;;;5084572;28;20200;-73
2021/01/05 09:45:56;;;;;;;28.90;22.70;;;2.50;99.90;;;;;;5081330;28;20733;-72
2021/01/05 09:48:21;;;;;;;29.70;23.07;;;2.50;99.90;;;;;;5087659;28;20325;-72
2021/01/05 09:50:47;;;;;;;35.23;24.87;;;2.40;99.90;;;;;;5088996;28;20255;-72
2021/01/05 09:53:13;;;;;;;38.13;27.00;;;2.40;99.90;;;;;;5091820;28;20204;-72
2021/01/05 09:55:40;;;;;;;34.70;23.90;;;2.40;99.90;;;;;;5088937;28;20196;-72
2021/01/05 09:58:06;;;;;;;37.83;25.97;;;2.40;99.90;;;;;;5077576;28;20198;-72
2021/01/05 10:00:32;;;;;;;42.87;27.30;;;2.40;99.90;;;;;;5088877;28;20802;-72
2021/01/05 10:02:58;;;;;;;28.83;22.40;;;2.50;99.90;;;;;;5089800;28;20304;-72
2021/01/05 10:05:24;;;;;;;32.50;23.30;;;2.50;99.90;;;;;;5091476;28;20276;-71
2021/01/05 10:07:50;;;;;;;26.50;21.93;;;2.50;99.90;;;;;;5090633;28;20302;-72
2021/01/05 10:10:21;;;;;;;28.00;23.07;;;2.50;99.90;;;;;;5092230;28;20209;-72
2021/01/05 10:12:47;;;;;;;32.93;25.40;;;2.50;99.90;;;;;;5090818;28;20193;-72
2021/01/05 10:15:15;;;;;;;28.30;21.30;;;2.50;99.90;;;;;;5093585;28;20197;-72
2021/01/05 10:17:40;;;;;;;29.53;23.93;;;2.50;99.90;;;;;;5092581;28;20194;-72
2021/01/05 10:20:08;;;;;;;26.10;22.67;;;2.50;99.90;;;;;;5089326;28;20790;-72
2021/01/05 10:22:33;;;;;;;27.30;22.67;;;2.50;99.90;;;;;;5091967;28;20237;-72
2021/01/05 10:24:59;;;;;;;30.63;24.43;;;2.50;99.90;;;;;;5091513;28;20685;-72
2021/01/05 10:27:25;;;;;;;29.23;22.33;;;2.60;99.90;;;;;;5089692;28;20208;-73
2021/01/05 10:29:52;;;;;;;26.17;21.60;;;2.70;99.90;;;;;;5089459;28;20730;-71
2021/01/05 10:32:18;;;;;;;25.83;21.10;;;2.70;99.90;;;;;;5086862;28;20221;-72
2021/01/05 10:34:43;;;;;;;24.03;19.10;;;2.80;99.90;;;;;;5081929;28;20207;-71
2021/01/05 10:37:10;;;;;;;23.93;20.17;;;2.90;99.90;;;;;;5086401;28;20259;-72
2021/01/05 10:39:36;;;;;;;24.03;21.00;;;2.90;99.90;;;;;;5092830;28;21516;-71
2021/01/05 10:42:04;;;;;;;25.97;21.20;;;2.90;99.90;;;;;;5088567;28;20186;-71
2021/01/05 10:44:30;;;;;;;26.77;23.70;;;3.00;99.90;;;;;;5089363;28;20187;-71
2021/01/05 10:47:00;;;;;;;26.63;21.90;;;3.00;99.90;;;;;;5084520;28;20234;-71
2021/01/05 10:49:26;;;;;;;26.67;21.90;;;3.00;99.90;;;;;;5093011;28;20579;-71
2021/01/05 10:51:58;;;;;;;26.57;21.77;;;3.00;99.90;;;;;;5091863;28;20207;-72
2021/01/05 10:54:26;;;;;;;24.07;20.17;;;3.00;99.90;;;;;;5084415;28;20206;-72
2021/01/05 10:57:04;;;;;;;23.87;19.87;;;3.00;99.90;;;;;;5086509;28;20206;-73
2021/01/05 10:59:30;;;;;;;30.03;26.13;;;3.00;99.90;;;;;;5083420;28;20180;-71
2021/01/05 11:01:57;;;;;;;37.17;28.40;;;3.00;99.90;;;;;;5087625;28;20187;-72
2021/01/05 11:04:24;;;;;;;29.13;22.70;;;3.10;99.90;;;;;;5094911;28;20602;-72
2021/01/05 11:06:55;;;;;;;25.87;19.40;;;3.10;99.90;;;;;;5081216;28;20225;-72
2021/01/05 11:09:21;;;;;;;30.33;22.27;;;3.20;99.90;;;;;;5077587;28;20621;-71
2021/01/05 11:11:47;;;;;;;27.53;21.93;;;3.20;99.90;;;;;;5084342;28;20168;-72
2021/01/05 11:14:15;;;;;;;27.70;21.00;;;3.20;99.90;;;;;;5084297;28;20226;-70
2021/01/05 11:16:50;;;;;;;26.97;22.23;;;3.30;99.90;;;;;;5080034;28;20183;-70
2021/01/05 11:19:16;;;;;;;28.83;22.73;;;3.30;99.90;;;;;;5079266;28;20195;-71
2021/01/05 11:21:49;;;;;;;26.90;22.67;;;3.30;99.90;;;;;;5093755;28;20180;-70
2021/01/05 11:24:14;;;;;;;26.17;22.07;;;3.30;99.90;;;;;;5087464;28;20184;-71
2021/01/05 11:26:40;;;;;;;29.60;24.73;;;3.20;99.90;;;;;;5092502;28;20195;-71
2021/01/05 11:29:06;;;;;;;25.20;21.33;;;3.20;99.90;;;;;;5082203;28;20215;-70
2021/01/05 11:31:31;;;;;;;27.00;21.63;;;3.20;99.90;;;;;;5081906;28;20220;-70
2021/01/05 11:33:58;;;;;;;31.33;25.73;;;3.20;99.90;;;;;;5089101;28;20200;-72
2021/01/05 11:36:28;;;;;;;28.53;24.00;;;3.20;99.90;;;;;;5089160;28;20210;-69
2021/01/05 11:38:55;;;;;;;30.13;26.03;;;3.20;99.90;;;;;;5085464;28;20176;-71
2021/01/05 11:41:33;;;;;;;36.00;28.43;;;3.20;99.90;;;;;;5081291;28;20208;-72
2021/01/05 11:43:59;;;;;;;25.87;21.43;;;3.30;99.90;;;;;;5085750;28;20283;-72
2021/01/05 11:46:26;;;;;;;25.27;20.60;;;3.30;99.90;;;;;;5088946;28;20215;-71
2021/01/05 11:48:52;;;;;;;23.00;19.57;;;3.30;99.90;;;;;;5092760;28;20209;-70
2021/01/05 11:51:30;;;;;;;28.57;21.30;;;3.30;99.90;;;;;;5083579;28;20193;-71
2021/01/05 11:53:55;;;;;;;27.37;21.43;;;3.30;99.90;;;;;;5088892;28;20184;-71
2021/01/05 11:56:24;;;;;;;26.23;20.77;;;3.30;99.90;;;;;;5088817;28;20245;-71
2021/01/05 11:58:49;;;;;;;33.70;24.10;;;3.30;99.90;;;;;;5084321;28;20245;-71
2021/01/05 12:01:15;;;;;;;34.53;23.03;;;3.30;99.90;;;;;;5083825;28;20908;-71
2021/01/05 12:03:41;;;;;;;28.83;23.37;;;3.30;99.90;;;;;;5088056;28;20256;-72
2021/01/05 12:06:21;;;;;;;28.53;21.93;;;3.30;99.90;;;;;;5089355;28;20231;-72
2021/01/05 12:08:47;;;;;;;27.63;21.93;;;3.20;99.90;;;;;;5084020;28;20266;-71
2021/01/05 12:11:34;;;;;;;30.57;22.47;;;3.20;99.90;;;;;;5084867;28;20188;-71
2021/01/05 12:14:01;;;;;;;27.57;20.53;;;3.20;99.90;;;;;;5088689;28;20240;-71
2021/01/05 12:16:28;;;;;;;28.20;21.73;;;3.20;99.90;;;;;;5091382;28;20201;-72
2021/01/05 12:18:55;;;;;;;27.17;21.07;;;3.20;99.90;;;;;;5083270;28;20262;-70
2021/01/05 12:21:26;;;;;;;26.67;20.77;;;3.20;99.90;;;;;;5091439;28;20197;-71
2021/01/05 12:23:53;;;;;;;26.33;20.07;;;3.20;99.90;;;;;;5084622;28;20756;-70
2021/01/05 12:26:27;;;;;;;26.33;21.73;;;3.20;99.90;;;;;;5084643;28;20243;-71
2021/01/05 12:28:53;;;;;;;27.63;20.87;;;3.20;99.90;;;;;;5088454;28;20204;-71
2021/01/05 12:31:18;;;;;;;26.40;22.33;;;3.20;99.90;;;;;;5084648;28;20189;-71
2021/01/05 12:33:44;;;;;;;24.63;20.73;;;3.10;99.90;;;;;;5087736;28;20243;-72
2021/01/05 12:36:10;;;;;;;26.67;21.53;;;3.10;99.90;;;;;;5094547;28;20238;-71
2021/01/05 12:38:36;;;;;;;26.63;21.73;;;3.10;99.90;;;;;;5094909;28;20800;-70
2021/01/05 12:41:03;;;;;;;27.73;22.30;;;3.10;99.90;;;;;;5100057;28;20235;-72
2021/01/05 12:43:29;;;;;;;28.60;22.70;;;3.10;99.90;;;;;;5094813;28;20173;-71
2021/01/05 12:45:55;;;;;;;30.53;22.43;;;3.10;99.90;;;;;;5091572;28;20295;-71
2021/01/05 12:48:20;;;;;;;28.23;23.00;;;3.10;99.90;;;;;;5084962;28;20275;-70
2021/01/05 12:50:47;;;;;;;27.13;21.63;;;3.20;99.90;;;;;;5084944;28;20193;-73
2021/01/05 12:53:13;;;;;;;28.67;21.40;;;3.20;99.90;;;;;;5081958;28;20193;-72